createdAt,value
2023-03-17T00:01:54.284Z,5.50
2023-03-17T00:04:24.040Z,5.50
2023-03-17T00:06:52.803Z,5.50
2023-03-17T00:09:23.245Z,5.50
2023-03-17T00:11:51.481Z,5.40
2023-03-17T00:14:20.594Z,5.40
2023-03-17T00:16:50.610Z,5.40
2023-03-17T00:19:22.178Z,5.40
2023-03-17T00:21:51.740Z,5.40
2023-03-17T00:24:21.303Z,5.40
2023-03-17T00:26:49.275Z,5.30
2023-03-17T00:29:17.249Z,5.40
2023-03-17T00:31:46.054Z,5.30
2023-03-17T00:34:18.246Z,5.40
2023-03-17T00:36:48.651Z,5.40
2023-03-17T00:39:17.431Z,5.30
2023-03-17T00:41:49.782Z,5.30
2023-03-17T00:44:19.091Z,5.30
2023-03-17T00:46:47.342Z,5.30
2023-03-17T00:49:21.221Z,5.30
2023-03-17T00:51:50.791Z,5.30
2023-03-17T00:54:20.605Z,5.30
2023-03-17T00:56:52.059Z,5.30
2023-03-17T00:59:25.424Z,5.30
2023-03-17T01:01:54.434Z,5.30
2023-03-17T01:04:22.733Z,5.30
2023-03-17T01:06:51.367Z,5.30
2023-03-17T01:09:20.826Z,5.20
2023-03-17T01:11:50.220Z,5.20
2023-03-17T01:14:18.348Z,5.20
2023-03-17T01:16:47.702Z,5.20
2023-03-17T01:19:16.776Z,5.20
2023-03-17T01:21:45.635Z,5.10
2023-03-17T01:24:14.557Z,5.10
2023-03-17T01:26:42.591Z,5.10
2023-03-17T01:29:12.188Z,5.10
2023-03-17T01:31:40.245Z,5.10
2023-03-17T01:34:08.231Z,5.00
2023-03-17T01:36:37.558Z,5.00
2023-03-17T01:39:07.411Z,5.00
2023-03-17T01:41:35.695Z,5.00
2023-03-17T01:44:03.710Z,5.00
2023-03-17T01:46:35.309Z,4.90
2023-03-17T01:49:21.811Z,4.90
2023-03-17T01:52:00.957Z,4.90
2023-03-17T01:54:35.721Z,4.90
2023-03-17T01:57:10.586Z,4.80
2023-03-17T01:59:44.194Z,4.80
2023-03-17T02:02:18.231Z,4.80
2023-03-17T02:04:46.237Z,4.80
2023-03-17T02:07:15.650Z,4.80
2023-03-17T02:09:44.722Z,4.70
2023-03-17T02:12:13.706Z,4.70
2023-03-17T02:14:41.783Z,4.70
2023-03-17T02:17:09.973Z,4.70
2023-03-17T02:19:39.397Z,4.70
2023-03-17T02:22:09.195Z,4.60
2023-03-17T02:24:43.297Z,4.60
2023-03-17T02:27:15.102Z,4.60
2023-03-17T02:29:46.221Z,4.60
2023-03-17T02:32:15.648Z,4.60
2023-03-17T02:34:43.610Z,4.60
2023-03-17T02:37:13.213Z,4.60
2023-03-17T02:39:41.537Z,4.60
2023-03-17T02:42:10.402Z,4.60
2023-03-17T02:44:38.520Z,4.60
2023-03-17T02:47:07.636Z,4.60
2023-03-17T02:49:37.581Z,4.60
2023-03-17T02:52:07.283Z,4.60
2023-03-17T02:54:37.077Z,4.60
2023-03-17T02:57:05.602Z,4.60
2023-03-17T02:59:33.640Z,4.60
2023-03-17T03:02:01.677Z,4.60
2023-03-17T03:04:30.637Z,4.60
2023-03-17T03:06:58.756Z,4.70
2023-03-17T03:09:27.324Z,4.70
2023-03-17T03:11:56.918Z,4.70
2023-03-17T03:14:25.318Z,4.70
2023-03-17T03:16:53.374Z,4.70
2023-03-17T03:19:22.337Z,4.70
2023-03-17T03:21:50.863Z,4.60
2023-03-17T03:24:18.913Z,4.60
2023-03-17T03:26:46.951Z,4.60
2023-03-17T03:29:16.939Z,4.70
2023-03-17T03:31:44.981Z,4.70
2023-03-17T03:34:13.008Z,4.70
2023-03-17T03:36:41.324Z,4.70
2023-03-17T03:39:09.784Z,4.70
2023-03-17T03:41:38.092Z,4.60
2023-03-17T03:44:06.502Z,4.70
2023-03-17T03:46:37.028Z,4.70
2023-03-17T03:49:05.547Z,4.70
2023-03-17T03:51:33.596Z,4.70
2023-03-17T03:54:02.669Z,4.70
2023-03-17T03:56:30.757Z,4.70
2023-03-17T03:58:58.782Z,4.60
2023-03-17T04:01:27.376Z,4.60
2023-03-17T04:03:56.836Z,4.60
2023-03-17T04:06:24.924Z,4.60
2023-03-17T04:08:53.034Z,4.60
2023-03-17T04:11:21.160Z,4.60
2023-03-17T04:13:49.210Z,4.60
2023-03-17T04:16:17.687Z,4.60
2023-03-17T04:18:46.037Z,4.60
2023-03-17T04:21:18.436Z,4.50
2023-03-17T04:23:46.594Z,4.50
2023-03-17T04:26:14.661Z,4.50
2023-03-17T04:28:42.811Z,4.50
2023-03-17T04:31:12.690Z,4.50
2023-03-17T04:33:40.861Z,4.50
2023-03-17T04:36:12.835Z,4.50
2023-03-17T04:38:42.373Z,4.50
2023-03-17T04:41:11.803Z,4.50
2023-03-17T04:43:40.323Z,4.50
2023-03-17T04:46:09.973Z,4.50
2023-03-17T04:48:38.409Z,4.50
2023-03-17T04:51:06.890Z,4.50
2023-03-17T04:53:38.318Z,4.50
2023-03-17T04:56:08.636Z,4.50
2023-03-17T04:58:37.992Z,4.50
2023-03-17T05:01:07.372Z,4.50
2023-03-17T05:03:36.102Z,4.50
2023-03-17T05:06:06.116Z,4.50
2023-03-17T05:08:34.222Z,4.40
2023-03-17T05:11:02.307Z,4.50
2023-03-17T05:13:31.865Z,4.50
2023-03-17T05:16:00.908Z,4.50
2023-03-17T05:18:29.383Z,4.40
2023-03-17T05:20:57.392Z,4.50
2023-03-17T05:23:25.926Z,4.40
2023-03-17T05:25:54.559Z,4.40
2023-03-17T05:28:22.708Z,4.40
2023-03-17T05:30:52.279Z,4.40
2023-03-17T05:33:21.721Z,4.40
2023-03-17T05:35:49.899Z,4.40
2023-03-17T05:38:18.317Z,4.40
2023-03-17T05:40:48.410Z,4.40
2023-03-17T05:43:16.441Z,4.40
2023-03-17T05:45:45.098Z,4.40
2023-03-17T05:48:14.584Z,4.40
2023-03-17T05:50:42.731Z,4.40
2023-03-17T05:53:10.933Z,4.40
2023-03-17T05:55:38.951Z,4.40
2023-03-17T05:58:07.685Z,4.30
2023-03-17T06:00:36.458Z,4.30
2023-03-17T06:03:04.759Z,4.30
2023-03-17T06:05:34.381Z,4.30
2023-03-17T06:08:02.677Z,4.30
2023-03-17T06:10:31.280Z,4.30
2023-03-17T06:13:01.106Z,4.30
2023-03-17T06:15:30.410Z,4.30
2023-03-17T06:17:59.190Z,4.40
2023-03-17T06:20:27.776Z,4.40
2023-03-17T06:23:04.347Z,4.40
2023-03-17T06:25:34.588Z,4.40
2023-03-17T06:28:03.895Z,4.40
2023-03-17T06:30:32.812Z,4.40
2023-03-17T06:33:01.368Z,4.40
2023-03-17T06:35:29.887Z,4.40
2023-03-17T06:37:59.760Z,4.50
2023-03-17T06:40:27.842Z,4.50
2023-03-17T06:42:56.566Z,4.50
2023-03-17T06:45:24.728Z,4.50
2023-03-17T06:47:52.863Z,4.50
2023-03-17T06:50:21.404Z,4.60
2023-03-17T06:52:49.457Z,4.60
2023-03-17T06:55:21.299Z,4.60
2023-03-17T06:57:51.154Z,4.70
2023-03-17T07:00:20.991Z,4.70
2023-03-17T07:02:49.645Z,4.70
2023-03-17T07:05:17.926Z,4.80
2023-03-17T07:07:46.163Z,4.80
2023-03-17T07:10:15.755Z,4.80
2023-03-17T07:12:45.430Z,4.90
2023-03-17T07:15:13.752Z,5.00
2023-03-17T07:17:42.080Z,5.00
2023-03-17T07:20:11.695Z,5.10
2023-03-17T07:22:39.833Z,5.30
2023-03-17T07:25:09.723Z,5.30
2023-03-17T07:27:37.965Z,5.30
2023-03-17T07:30:08.966Z,5.40
2023-03-17T07:32:37.656Z,5.40
2023-03-17T07:35:08.139Z,5.40
2023-03-17T07:37:36.428Z,5.50
2023-03-17T07:40:06.240Z,5.60
2023-03-17T07:42:34.251Z,5.70
2023-03-17T07:45:04.129Z,5.80
2023-03-17T07:47:33.637Z,5.90
2023-03-17T07:50:01.821Z,6.00
2023-03-17T07:52:29.975Z,6.10
2023-03-17T07:54:58.409Z,6.20
2023-03-17T07:57:27.193Z,6.30
2023-03-17T07:59:55.912Z,6.40
2023-03-17T08:02:24.396Z,6.40
2023-03-17T08:04:54.650Z,6.50
2023-03-17T08:07:22.752Z,6.50
2023-03-17T08:09:51.165Z,6.50
2023-03-17T08:12:20.069Z,6.50
2023-03-17T08:14:48.445Z,6.60
2023-03-17T08:17:16.950Z,6.60
2023-03-17T08:19:45.326Z,6.60
2023-03-17T08:22:15.004Z,6.60
2023-03-17T08:24:43.274Z,6.70
2023-03-17T08:27:11.424Z,6.70
2023-03-17T08:29:39.642Z,6.80
2023-03-17T08:32:09.760Z,6.90
2023-03-17T08:34:38.162Z,7.00
2023-03-17T08:37:07.174Z,7.00
2023-03-17T08:39:37.642Z,7.20
2023-03-17T08:42:06.084Z,7.30
2023-03-17T08:44:35.033Z,7.50
2023-03-17T08:47:03.551Z,7.60
2023-03-17T08:49:34.844Z,7.80
2023-03-17T08:52:03.528Z,7.80
2023-03-17T08:54:31.567Z,7.90
2023-03-17T08:57:01.962Z,8.00
2023-03-17T08:59:30.404Z,8.10
2023-03-17T09:01:59.508Z,8.20
2023-03-17T09:04:28.186Z,8.20
2023-03-17T09:07:03.838Z,8.30
2023-03-17T09:09:33.554Z,8.30
2023-03-17T09:12:05.641Z,8.40
2023-03-17T09:14:42.847Z,8.50
2023-03-17T09:17:11.884Z,8.60
2023-03-17T09:19:40.451Z,8.60
2023-03-17T09:22:09.242Z,8.70
2023-03-17T09:24:37.306Z,8.70
2023-03-17T09:27:07.066Z,8.80
2023-03-17T09:29:35.563Z,8.90
2023-03-17T09:32:03.592Z,9.00
2023-03-17T09:34:31.588Z,9.10
2023-03-17T09:37:00.049Z,9.20
2023-03-17T09:39:28.654Z,9.30
2023-03-17T09:42:09.739Z,9.40
2023-03-17T09:45:02.873Z,9.50
2023-03-17T09:47:54.709Z,9.70
2023-03-17T09:50:26.925Z,9.70
2023-03-17T09:52:56.856Z,9.80
2023-03-17T09:55:28.476Z,10.00
2023-03-17T09:58:00.781Z,10.10
2023-03-17T10:00:31.238Z,10.30
2023-03-17T10:03:00.185Z,10.40
2023-03-17T10:05:30.671Z,10.60
2023-03-17T10:08:10.849Z,10.70
2023-03-17T10:10:48.193Z,10.80
2023-03-17T10:13:29.615Z,11.00
2023-03-17T10:16:02.125Z,11.00
2023-03-17T10:18:34.527Z,11.20
2023-03-17T10:21:06.007Z,11.20
2023-03-17T10:23:37.178Z,11.30
2023-03-17T10:26:09.789Z,11.40
2023-03-17T10:28:40.117Z,11.30
2023-03-17T10:31:16.655Z,11.30
2023-03-17T10:33:45.886Z,11.30
2023-03-17T10:36:17.862Z,11.30
2023-03-17T10:38:54.165Z,11.40
2023-03-17T10:41:22.248Z,11.40
2023-03-17T10:43:51.907Z,11.40
2023-03-17T10:46:22.176Z,11.40
2023-03-17T10:48:56.431Z,11.40
2023-03-17T10:51:31.867Z,11.40
2023-03-17T10:54:03.921Z,11.50
2023-03-17T10:56:36.386Z,11.50
2023-03-17T10:59:09.995Z,11.60
2023-03-17T11:01:41.494Z,11.70
2023-03-17T11:04:37.861Z,11.70
2023-03-17T11:07:16.482Z,11.90
2023-03-17T11:09:49.770Z,12.00
2023-03-17T11:12:26.458Z,12.10
2023-03-17T11:15:00.538Z,12.20
2023-03-17T11:17:44.051Z,12.30
2023-03-17T11:20:30.372Z,12.30
2023-03-17T11:23:05.889Z,12.40
2023-03-17T11:25:38.286Z,12.50
2023-03-17T11:28:19.960Z,12.60
2023-03-17T11:30:58.922Z,12.70
2023-03-17T11:33:36.401Z,12.80
2023-03-17T11:36:15.769Z,12.80
2023-03-17T11:38:53.297Z,12.90
2023-03-17T11:41:45.001Z,13.00
2023-03-17T11:44:38.581Z,13.00
2023-03-17T11:47:20.519Z,13.00
2023-03-17T11:49:58.504Z,13.00
2023-03-17T11:52:32.615Z,13.10
2023-03-17T11:55:09.151Z,13.10
2023-03-17T11:57:45.789Z,13.10
2023-03-17T12:00:22.753Z,13.20
2023-03-17T12:02:58.061Z,13.20
2023-03-17T12:05:27.288Z,13.30
2023-03-17T12:07:59.556Z,13.40
2023-03-17T12:10:34.505Z,13.40
2023-03-17T12:13:08.354Z,13.50
2023-03-17T12:15:43.505Z,13.60
2023-03-17T12:18:18.630Z,13.70
2023-03-17T12:20:52.688Z,13.70
2023-03-17T12:23:30.071Z,13.80
2023-03-17T12:26:03.757Z,13.90
2023-03-17T12:28:37.583Z,14.10
2023-03-17T12:31:08.877Z,14.20
2023-03-17T12:33:44.825Z,14.30
2023-03-17T12:36:16.204Z,14.40
2023-03-17T12:38:47.931Z,14.50
2023-03-17T12:41:32.693Z,14.60
2023-03-17T12:44:07.961Z,14.70
2023-03-17T12:47:09.637Z,14.80
2023-03-17T12:50:02.603Z,14.80
2023-03-17T12:52:48.362Z,14.80
2023-03-17T12:55:18.885Z,14.80
2023-03-17T12:57:48.871Z,14.80
2023-03-17T13:00:21.188Z,14.90
2023-03-17T13:03:08.328Z,14.90
2023-03-17T13:05:38.408Z,15.00
2023-03-17T13:08:10.974Z,15.10
2023-03-17T13:10:42.692Z,15.10
2023-03-17T13:13:37.744Z,15.20
2023-03-17T13:16:07.068Z,15.20
2023-03-17T13:18:53.141Z,15.30
2023-03-17T13:21:25.099Z,15.30
2023-03-17T13:23:59.679Z,15.30
2023-03-17T13:26:55.284Z,15.30
2023-03-17T13:29:43.726Z,15.40
2023-03-17T13:32:38.217Z,15.40
2023-03-17T13:35:26.355Z,15.50
2023-03-17T13:38:30.345Z,15.50
2023-03-17T13:41:16.914Z,15.60
2023-03-17T13:43:57.824Z,15.60
2023-03-17T13:46:36.379Z,15.70
2023-03-17T13:49:16.461Z,15.80
2023-03-17T13:51:59.551Z,15.80
2023-03-17T13:54:34.273Z,15.80
2023-03-17T13:57:26.613Z,15.80
2023-03-17T14:00:03.948Z,15.90
2023-03-17T14:02:36.503Z,16.00
2023-03-17T14:05:07.533Z,16.00
2023-03-17T14:07:44.702Z,16.10
2023-03-17T14:10:19.330Z,16.00
2023-03-17T14:12:55.948Z,16.00
2023-03-17T14:15:29.582Z,16.00
2023-03-17T14:18:02.264Z,16.10
2023-03-17T14:20:30.884Z,16.10
2023-03-17T14:23:01.814Z,16.10
2023-03-17T14:25:34.812Z,16.00
2023-03-17T14:28:09.388Z,15.90
2023-03-17T14:30:39.684Z,15.90
2023-03-17T14:33:24.540Z,15.90
2023-03-17T14:35:55.326Z,15.90
2023-03-17T14:38:27.356Z,15.90
2023-03-17T14:41:05.691Z,15.90
2023-03-17T14:43:36.912Z,15.90
2023-03-17T14:46:07.653Z,15.90
2023-03-17T14:48:38.179Z,15.90
2023-03-17T14:51:10.685Z,15.80
2023-03-17T14:53:43.106Z,15.80
2023-03-17T14:56:11.605Z,15.80
2023-03-17T14:58:45.994Z,15.70
2023-03-17T15:01:17.702Z,15.70
2023-03-17T15:03:56.302Z,15.70
2023-03-17T15:06:26.928Z,15.60
2023-03-17T15:08:55.536Z,15.60
2023-03-17T15:11:27.060Z,15.50
2023-03-17T15:14:06.956Z,15.50
2023-03-17T15:16:36.617Z,15.40
2023-03-17T15:19:08.371Z,15.40
2023-03-17T15:21:40.788Z,15.40
2023-03-17T15:24:24.554Z,15.40
2023-03-17T15:26:59.483Z,15.30
2023-03-17T15:29:29.367Z,15.30
2023-03-17T15:32:03.895Z,15.20
2023-03-17T15:34:31.974Z,15.10
2023-03-17T15:37:00.047Z,15.10
2023-03-17T15:39:28.052Z,15.10
2023-03-17T15:41:56.042Z,15.00
2023-03-17T15:44:24.038Z,15.00
2023-03-17T15:46:53.388Z,14.90
2023-03-17T15:49:24.711Z,14.90
2023-03-17T15:51:53.986Z,14.80
2023-03-17T15:54:21.965Z,14.80
2023-03-17T15:56:57.340Z,14.80
2023-03-17T15:59:25.459Z,14.70
2023-03-17T16:01:55.437Z,14.70
2023-03-17T16:04:23.585Z,14.60
2023-03-17T16:06:51.793Z,14.60
2023-03-17T16:09:19.825Z,14.60
2023-03-17T16:11:47.895Z,14.50
2023-03-17T16:14:15.905Z,14.40
2023-03-17T16:16:45.821Z,14.40
2023-03-17T16:19:20.371Z,14.40
2023-03-17T16:21:49.075Z,14.40
2023-03-17T16:24:19.903Z,14.30
2023-03-17T16:26:48.171Z,14.30
2023-03-17T16:29:17.203Z,14.20
2023-03-17T16:31:48.861Z,14.20
2023-03-17T16:34:20.187Z,14.10
2023-03-17T16:36:48.446Z,14.00
2023-03-17T16:39:19.358Z,13.90
2023-03-17T16:41:48.301Z,14.00
2023-03-17T16:44:18.121Z,13.90
2023-03-17T16:46:46.275Z,13.90
2023-03-17T16:49:16.601Z,13.90
2023-03-17T16:51:47.127Z,13.80
2023-03-17T16:54:16.201Z,13.80
2023-03-17T16:56:44.296Z,13.80
2023-03-17T16:59:19.613Z,13.70
2023-03-17T17:01:47.791Z,13.60
2023-03-17T17:04:15.812Z,13.60
2023-03-17T17:06:45.194Z,13.50
2023-03-17T17:09:13.214Z,13.40
2023-03-17T17:11:41.210Z,13.40
2023-03-17T17:14:09.242Z,13.30
2023-03-17T17:16:40.461Z,13.20
2023-03-17T17:19:15.817Z,13.20
2023-03-17T17:21:45.757Z,13.10
2023-03-17T17:24:15.039Z,13.10
2023-03-17T17:26:43.044Z,13.10
2023-03-17T17:29:12.176Z,13.10
2023-03-17T17:31:40.869Z,13.10
2023-03-17T17:34:08.958Z,13.10
2023-03-17T17:36:37.078Z,13.10
2023-03-17T17:39:06.765Z,13.00
2023-03-17T17:41:34.875Z,13.00
2023-03-17T17:44:03.044Z,12.90
2023-03-17T17:46:31.321Z,12.90
2023-03-17T17:48:59.391Z,12.90
2023-03-17T17:51:28.732Z,12.80
2023-03-17T17:53:56.805Z,12.70
2023-03-17T17:56:26.539Z,12.70
2023-03-17T17:58:54.591Z,12.70
2023-03-17T18:01:22.734Z,12.60
2023-03-17T18:03:50.999Z,12.60
2023-03-17T18:06:19.010Z,12.50
2023-03-17T18:08:47.178Z,12.50
2023-03-17T18:11:15.148Z,12.40
2023-03-17T18:13:44.532Z,12.40
2023-03-17T18:16:16.300Z,12.40
2023-03-17T18:18:45.955Z,12.40
2023-03-17T18:21:14.966Z,12.30
2023-03-17T18:23:47.093Z,12.30
2023-03-17T18:26:16.450Z,12.20
2023-03-17T18:28:46.007Z,12.20
2023-03-17T18:31:17.687Z,12.20
2023-03-17T18:33:47.707Z,12.20
2023-03-17T18:36:16.126Z,12.20
2023-03-17T18:38:44.142Z,12.20
2023-03-17T18:41:12.423Z,12.20
2023-03-17T18:43:41.215Z,12.10
2023-03-17T18:46:10.867Z,12.10
2023-03-17T18:48:38.932Z,12.10
2023-03-17T18:51:07.494Z,12.00
2023-03-17T18:53:35.564Z,12.00
2023-03-17T18:56:04.032Z,12.00
2023-03-17T18:58:32.167Z,11.90
2023-03-17T19:01:01.642Z,11.90
2023-03-17T19:03:32.219Z,11.90
2023-03-17T19:06:09.450Z,11.90
2023-03-17T19:08:37.502Z,11.90
2023-03-17T19:11:07.527Z,11.90
2023-03-17T19:13:35.889Z,11.90
2023-03-17T19:16:04.079Z,11.80
2023-03-17T19:18:33.596Z,11.80
2023-03-17T19:21:02.244Z,11.80
2023-03-17T19:23:32.183Z,11.70
2023-03-17T19:26:00.508Z,11.70
2023-03-17T19:28:28.647Z,11.70
2023-03-17T19:30:56.771Z,11.70
2023-03-17T19:33:24.833Z,11.60
2023-03-17T19:35:56.989Z,11.60
2023-03-17T19:38:27.073Z,11.60
2023-03-17T19:40:55.693Z,11.50
2023-03-17T19:43:39.448Z,11.50
2023-03-17T19:46:08.889Z,11.50
2023-03-17T19:48:37.485Z,11.50
2023-03-17T19:51:08.052Z,11.50
2023-03-17T19:53:37.325Z,11.50
2023-03-17T19:56:06.403Z,11.40
2023-03-17T19:58:34.447Z,11.40
2023-03-17T20:01:03.549Z,11.40
2023-03-17T20:03:33.528Z,11.40
2023-03-17T20:06:05.967Z,11.40
2023-03-17T20:08:35.871Z,11.40
2023-03-17T20:11:05.685Z,11.30
2023-03-17T20:13:34.466Z,11.30
2023-03-17T20:16:03.067Z,11.30
2023-03-17T20:18:31.187Z,11.30
2023-03-17T20:21:00.280Z,11.20
2023-03-17T20:23:28.731Z,11.20
2023-03-17T20:25:58.082Z,11.10
2023-03-17T20:28:26.857Z,11.10
2023-03-17T20:30:59.831Z,11.10
2023-03-17T20:33:28.922Z,11.10
2023-03-17T20:35:57.692Z,11.10
2023-03-17T20:38:25.966Z,11.10
2023-03-17T20:40:54.101Z,11.00
2023-03-17T20:43:23.574Z,11.00
2023-03-17T20:45:53.116Z,11.00
2023-03-17T20:48:21.592Z,11.00
2023-03-17T20:50:50.775Z,11.00
2023-03-17T20:53:18.793Z,10.90
2023-03-17T20:55:47.225Z,10.80
2023-03-17T20:58:15.240Z,10.80
2023-03-17T21:00:44.708Z,10.80
2023-03-17T21:03:13.799Z,10.70
2023-03-17T21:05:42.366Z,10.70
2023-03-17T21:08:10.651Z,10.70
2023-03-17T21:10:38.644Z,10.70
2023-03-17T21:13:06.709Z,10.60
2023-03-17T21:15:35.833Z,10.60
2023-03-17T21:18:05.835Z,10.60
2023-03-17T21:20:34.039Z,10.60
2023-03-17T21:23:04.527Z,10.60
2023-03-17T21:25:32.570Z,10.50
2023-03-17T21:28:01.529Z,10.50
2023-03-17T21:30:29.821Z,10.50
2023-03-17T21:33:00.128Z,10.40
2023-03-17T21:35:30.535Z,10.40
2023-03-17T21:37:59.004Z,10.40
2023-03-17T21:40:27.070Z,10.40
2023-03-17T21:42:55.398Z,10.40
2023-03-17T21:45:23.884Z,10.40
2023-03-17T21:47:54.524Z,10.30
2023-03-17T21:50:23.594Z,10.40
2023-03-17T21:53:01.626Z,10.30
2023-03-17T21:55:30.165Z,10.40
2023-03-17T21:57:59.186Z,10.40
2023-03-17T22:00:33.439Z,10.30
2023-03-17T22:03:09.103Z,10.30
2023-03-17T22:05:38.683Z,10.30
2023-03-17T22:08:08.831Z,10.30
2023-03-17T22:10:38.005Z,10.30
2023-03-17T22:13:09.058Z,10.30
2023-03-17T22:15:38.290Z,10.30
2023-03-17T22:18:06.895Z,10.30
2023-03-17T22:20:35.892Z,10.20
2023-03-17T22:23:07.203Z,10.20
2023-03-17T22:25:35.578Z,10.20
2023-03-17T22:28:05.232Z,10.20
2023-03-17T22:30:34.033Z,10.20
2023-03-17T22:33:03.609Z,10.20
2023-03-17T22:35:33.729Z,10.20
2023-03-17T22:38:04.958Z,10.20
2023-03-17T22:40:35.234Z,10.10
2023-03-17T22:43:04.185Z,10.10
2023-03-17T22:45:35.467Z,10.10
2023-03-17T22:48:08.631Z,10.10
2023-03-17T22:50:38.752Z,10.10
2023-03-17T22:53:14.318Z,10.00
2023-03-17T22:55:47.913Z,10.00
2023-03-17T22:58:19.766Z,10.00
2023-03-17T23:00:53.359Z,10.00
2023-03-17T23:03:26.229Z,10.00
2023-03-17T23:06:01.076Z,10.10
2023-03-17T23:08:35.529Z,10.00
2023-03-17T23:11:09.017Z,10.00
2023-03-17T23:13:39.039Z,10.00
2023-03-17T23:16:15.499Z,10.00
2023-03-17T23:18:46.954Z,10.00
2023-03-17T23:21:22.939Z,10.00
2023-03-17T23:24:02.726Z,10.00
2023-03-17T23:26:36.524Z,10.00
2023-03-17T23:29:09.894Z,10.00
2023-03-17T23:31:40.189Z,10.00
2023-03-17T23:34:16.363Z,10.00
2023-03-17T23:36:46.502Z,9.90
2023-03-17T23:39:17.100Z,9.90
2023-03-17T23:41:51.144Z,9.90
2023-03-17T23:44:22.025Z,9.90
2023-03-17T23:46:51.616Z,9.90
2023-03-17T23:49:21.533Z,9.90
2023-03-17T23:51:54.170Z,9.90
2023-03-17T23:54:24.842Z,9.90
2023-03-17T23:56:54.940Z,9.90
2023-03-17T23:59:28.608Z,9.80
